Time;durP1;ratioP1;P1;durP2;ratioP2;P2;SDS_P1;SDS_P2;PMS_P1;PMS_P2;Temp;Humidity;BMP_temperature;BMP_pressure;BME280_temperature;BME280_humidity;BME280_pressure;Samples;Min_cycle;Max_cycle;Signal;HPM_P1;HPM_P2
2021/09/20 00:00:46;;;;;;;5.55;3.95;;;;;;;12.59;90.84;98740.31;5085293;28;20036;-74
2021/09/20 00:03:12;;;;;;;6.03;4.05;;;;;;;12.59;90.08;98747.63;5086763;28;20060;-74
2021/09/20 00:05:37;;;;;;;6.32;3.70;;;;;;;12.69;90.58;98753.41;5064512;28;20028;-74
2021/09/20 00:08:03;;;;;;;6.55;3.75;;;;;;;12.83;89.72;98771.25;5075731;28;20040;-74
2021/09/20 00:10:29;;;;;;;6.82;4.10;;;;;;;12.76;90.48;98762.34;5057923;28;20040;-74
2021/09/20 00:12:54;;;;;;;6.70;4.63;;;;;;;12.84;90.69;98770.25;5074358;28;20020;-73
2021/09/20 00:15:20;;;;;;;5.45;4.05;;;;;;;12.84;90.89;98772.13;5075332;28;20039;-74
2021/09/20 00:17:45;;;;;;;6.80;3.88;;;;;;;12.67;91.02;98736.50;5075828;28;20029;-74
2021/09/20 00:20:11;;;;;;;5.68;4.25;;;;;;;12.77;90.19;98749.59;5076147;28;20031;-74
2021/09/20 00:22:36;;;;;;;9.30;4.35;;;;;;;12.85;91.43;98773.78;5075459;28;20032;-74
2021/09/20 00:25:03;;;;;;;5.82;4.25;;;;;;;12.80;91.23;98774.44;5075524;28;20035;-74
2021/09/20 00:27:28;;;;;;;7.72;4.18;;;;;;;12.76;91.87;98775.06;5075974;28;20028;-74
2021/09/20 00:29:53;;;;;;;6.07;4.18;;;;;;;12.59;91.85;98751.16;5055289;28;20496;-74
2021/09/20 00:32:19;;;;;;;6.20;4.32;;;;;;;12.71;91.99;98781.19;5074566;28;20025;-74
2021/09/20 00:34:44;;;;;;;5.85;4.40;;;;;;;12.69;92.36;98772.41;5056882;28;20021;-74
2021/09/20 00:37:10;;;;;;;7.97;4.28;;;;;;;12.74;93.53;98782.63;5074695;28;20032;-74
2021/09/20 00:39:37;;;;;;;7.82;4.15;;;;;;;12.61;92.72;98764.53;5075431;28;20029;-74
2021/09/20 00:42:03;;;;;;;6.30;4.20;;;;;;;12.69;92.76;98777.84;5075947;28;20028;-74
2021/09/20 00:44:28;;;;;;;6.30;4.22;;;;;;;12.71;91.88;98775.75;5074464;28;20028;-74
2021/09/20 00:46:53;;;;;;;6.45;4.60;;;;;;;12.53;92.12;98754.75;5073955;28;20494;-74
2021/09/20 00:49:18;;;;;;;8.10;4.00;;;;;;;12.65;91.74;98772.03;5072304;28;20087;-74
2021/09/20 00:51:44;;;;;;;6.32;4.30;;;;;;;12.71;91.95;98781.19;5074299;28;20157;-74
2021/09/20 00:54:09;;;;;;;5.65;3.90;;;;;;;12.70;91.49;98774.06;5073963;28;20039;-74
2021/09/20 00:56:34;;;;;;;6.82;4.40;;;;;;;12.62;91.93;98779.75;5056217;28;20032;-74
2021/09/20 00:59:00;;;;;;;7.15;4.30;;;;;;;12.50;91.88;98757.91;5055754;28;20492;-74
2021/09/20 01:01:27;;;;;;;5.97;4.22;;;;;;;12.63;91.46;98776.00;5056415;28;20081;-74
2021/09/20 01:03:52;;;;;;;6.18;4.15;;;;;;;12.46;91.64;98757.50;5074948;28;20029;-74
2021/09/20 01:06:17;;;;;;;7.07;4.38;;;;;;;12.44;91.58;98764.19;5056930;28;20024;-74
2021/09/20 01:08:43;;;;;;;6.72;4.55;;;;;;;12.46;92.42;98768.34;5074655;28;20488;-74
2021/09/20 01:11:08;;;;;;;7.07;4.53;;;;;;;12.45;92.47;98777.53;5075558;28;20029;-74
2021/09/20 01:13:34;;;;;;;6.85;4.60;;;;;;;12.40;92.49;98763.78;5075488;28;20020;-74
2021/09/20 01:15:59;;;;;;;6.70;4.47;;;;;;;12.50;91.70;98774.19;5075879;28;20020;-74
2021/09/20 01:18:25;;;;;;;5.50;3.80;;;;;;;12.56;91.11;98786.88;5075111;28;20036;-74
2021/09/20 01:20:50;;;;;;;7.47;4.40;;;;;;;12.56;91.59;98783.34;5075690;28;20385;-74
2021/09/20 01:23:17;;;;;;;6.05;4.72;;;;;;;12.47;91.86;98770.03;5056200;28;20075;-74
2021/09/20 01:25:42;;;;;;;5.75;4.22;;;;;;;12.61;91.43;98788.97;5056017;28;20025;-74
2021/09/20 01:28:08;;;;;;;5.55;4.30;;;;;;;12.54;92.48;98783.56;5070648;28;20115;-73
2021/09/20 01:30:34;;;;;;;9.75;5.07;;;;;;;12.59;92.69;98791.88;5075008;28;20505;-74
2021/09/20 01:32:59;;;;;;;7.05;4.70;;;;;;;12.46;92.49;98767.53;5056713;28;20028;-74
2021/09/20 01:35:26;;;;;;;8.25;5.32;;;;;;;12.56;92.40;98792.31;5056458;28;20032;-74
2021/09/20 01:37:51;;;;;;;8.02;4.95;;;;;;;12.47;92.48;98775.47;5052667;28;20425;-74
2021/09/20 01:40:17;;;;;;;8.60;4.82;;;;;;;12.64;92.31;98785.81;5069663;28;20025;-75
2021/09/20 01:42:43;;;;;;;6.35;4.63;;;;;;;12.60;92.54;98785.41;5056299;28;20534;-74
2021/09/20 01:45:10;;;;;;;10.05;5.15;;;;;;;12.60;92.53;98780.00;5056687;28;20071;-73
2021/09/20 01:47:36;;;;;;;7.15;4.78;;;;;;;12.73;92.64;98789.91;5071998;28;20040;-74
2021/09/20 01:50:02;;;;;;;8.27;5.60;;;;;;;12.71;92.41;98784.72;5083396;28;20024;-73
2021/09/20 01:52:28;;;;;;;8.38;5.38;;;;;;;12.75;92.86;98793.25;5079384;28;20029;-74
2021/09/20 01:54:54;;;;;;;7.85;4.85;;;;;;;12.75;92.88;98790.53;5092388;28;20024;-75
2021/09/20 01:57:22;;;;;;;6.80;4.45;;;;;;;12.77;92.92;98788.44;5096536;28;20033;-74
2021/09/20 01:59:48;;;;;;;6.00;4.40;;;;;;;12.70;92.96;98785.75;5079929;28;20500;-74
2021/09/20 02:02:13;;;;;;;7.95;4.80;;;;;;;12.62;92.55;98777.88;5089064;28;20037;-74
2021/09/20 02:04:38;;;;;;;8.30;5.00;;;;;;;12.60;92.67;98784.56;5080331;28;20044;-74
2021/09/20 02:07:04;;;;;;;6.00;4.22;;;;;;;12.60;93.02;98784.56;5093347;28;20024;-74
2021/09/20 02:09:29;;;;;;;7.25;4.32;;;;;;;12.54;92.74;98774.56;5097831;28;20009;-74
2021/09/20 02:11:54;;;;;;;7.20;4.32;;;;;;;12.67;92.71;98788.91;5098123;28;20025;-74
2021/09/20 02:14:20;;;;;;;9.70;4.68;;;;;;;12.56;93.03;98781.47;5063612;28;20009;-74
2021/09/20 02:16:45;;;;;;;7.45;4.70;;;;;;;12.58;93.50;98790.22;5097346;28;20020;-74
2021/09/20 02:19:10;;;;;;;7.43;4.57;;;;;;;12.57;93.62;98791.25;5099644;28;20080;-74
2021/09/20 02:21:36;;;;;;;7.03;4.70;;;;;;;12.52;93.86;98790.25;5098854;28;20009;-74
2021/09/20 02:24:01;;;;;;;7.25;4.50;;;;;;;12.36;94.20;98773.41;5097931;28;20016;-75
2021/09/20 02:26:26;;;;;;;6.35;4.30;;;;;;;12.34;94.38;98774.66;5099314;28;20353;-74
2021/09/20 02:28:52;;;;;;;7.10;4.47;;;;;;;12.42;94.00;98783.41;5097958;28;20033;-74
2021/09/20 02:31:19;;;;;;;7.90;4.70;;;;;;;12.38;93.38;98784.06;5096696;28;20027;-74
2021/09/20 02:33:44;;;;;;;6.57;4.85;;;;;;;12.46;93.46;98798.19;5099792;28;20043;-74
2021/09/20 02:36:10;;;;;;;7.20;4.90;;;;;;;12.25;93.51;98771.38;5080880;28;20060;-74
2021/09/20 02:38:36;;;;;;;6.90;4.82;;;;;;;12.45;93.57;98801.16;5095931;28;20089;-74
2021/09/20 02:41:01;;;;;;;7.38;5.00;;;;;;;12.49;92.83;98795.03;5097850;28;20043;-74
2021/09/20 02:43:27;;;;;;;7.63;4.80;;;;;;;12.45;93.74;98795.72;5085414;28;20008;-74
2021/09/20 02:45:52;;;;;;;6.93;4.70;;;;;;;12.46;93.87;98792.78;5086279;28;20012;-74
2021/09/20 02:48:18;;;;;;;6.05;4.35;;;;;;;12.52;93.68;98792.94;5096830;28;20013;-75
2021/09/20 02:50:44;;;;;;;9.05;5.07;;;;;;;12.48;93.81;98796.09;5098323;28;20066;-74
2021/09/20 02:53:10;;;;;;;7.30;4.60;;;;;;;12.48;93.87;98792.56;5098808;28;20124;-74
2021/09/20 02:55:35;;;;;;;10.50;4.65;;;;;;;12.37;93.87;98768.84;5079777;28;20082;-74
2021/09/20 02:58:01;;;;;;;6.28;4.47;;;;;;;12.44;94.17;98781.31;5096513;28;20013;-74
2021/09/20 03:00:26;;;;;;;10.02;4.95;;;;;;;12.46;93.27;98783.81;5098561;28;20018;-74
2021/09/20 03:02:52;;;;;;;6.53;4.78;;;;;;;12.41;92.72;98791.75;5098613;28;20210;-74
2021/09/20 03:05:17;;;;;;;8.15;4.57;;;;;;;12.44;93.20;98792.19;5096315;28;20009;-75
2021/09/20 03:07:42;;;;;;;5.50;4.22;;;;;;;12.52;92.60;98790.25;5081584;28;20039;-74
2021/09/20 03:10:08;;;;;;;9.00;4.32;;;;;;;12.44;93.81;98780.47;5097844;28;20021;-74
2021/09/20 03:12:34;;;;;;;6.68;4.82;;;;;;;12.39;94.02;98786.56;5079729;28;20044;-76
2021/09/20 03:14:59;;;;;;;7.55;4.43;;;;;;;12.25;94.00;98765.94;5099141;28;20032;-74
2021/09/20 03:17:24;;;;;;;8.73;4.18;;;;;;;12.43;93.80;98786.94;5097868;28;20033;-74
2021/09/20 03:19:50;;;;;;;7.30;5.10;;;;;;;12.36;93.53;98786.97;5096454;28;20119;-74
2021/09/20 03:22:15;;;;;;;7.32;4.57;;;;;;;12.29;92.82;98775.34;5098018;28;20054;-74
2021/09/20 03:24:40;;;;;;;9.80;5.10;;;;;;;12.21;92.81;98759.31;5080914;28;20020;-74
2021/09/20 03:27:06;;;;;;;7.03;4.47;;;;;;;12.51;92.53;98794.84;5095533;28;20016;-74
2021/09/20 03:29:31;;;;;;;6.18;4.35;;;;;;;12.47;92.52;98766.47;5081931;28;20027;-74
2021/09/20 03:31:56;;;;;;;6.10;4.70;;;;;;;12.45;93.21;98782.16;5099364;28;20021;-74
2021/09/20 03:34:22;;;;;;;6.50;4.60;;;;;;;12.44;93.47;98783.19;5095874;28;20023;-74
2021/09/20 03:36:47;;;;;;;9.30;4.97;;;;;;;12.46;93.41;98773.78;5081081;28;20033;-76
2021/09/20 03:39:12;;;;;;;8.23;4.82;;;;;;;12.47;93.76;98794.44;5095456;28;20028;-74
2021/09/20 03:41:38;;;;;;;9.10;4.70;;;;;;;12.45;94.25;98793.81;5084864;28;20024;-74
2021/09/20 03:44:03;;;;;;;6.88;4.63;;;;;;;12.35;94.75;98798.88;5080292;28;20024;-75
2021/09/20 03:46:29;;;;;;;6.47;4.75;;;;;;;12.34;95.59;98805.38;5079601;28;20040;-74
2021/09/20 03:48:54;;;;;;;7.82;4.60;;;;;;;12.35;95.99;98804.31;5094872;28;20036;-74
2021/09/20 03:51:20;;;;;;;5.72;4.30;;;;;;;12.42;95.67;98810.53;5080176;28;20023;-75
2021/09/20 03:53:45;;;;;;;6.53;4.68;;;;;;;12.38;95.63;98812.00;5080694;28;20020;-74
2021/09/20 03:56:10;;;;;;;7.93;5.10;;;;;;;12.34;96.25;98801.78;5094049;28;20026;-76
2021/09/20 03:58:37;;;;;;;6.85;4.65;;;;;;;12.27;96.05;98809.97;5095995;28;20048;-74
2021/09/20 04:01:03;;;;;;;7.03;4.85;;;;;;;12.19;96.08;98802.06;5097840;28;20016;-74
2021/09/20 04:03:29;;;;;;;6.95;5.35;;;;;;;12.21;96.35;98808.13;5095231;28;20021;-75
2021/09/20 04:05:54;;;;;;;7.05;4.70;;;;;;;12.23;96.86;98806.00;5056678;28;20398;-75
2021/09/20 04:08:26;;;;;;;7.18;4.50;;;;;;;12.30;96.58;98820.38;5073882;28;20021;-74
2021/09/20 04:10:52;;;;;;;7.32;4.85;;;;;;;12.31;97.16;98824.75;5075753;28;20478;-74
2021/09/20 04:13:17;;;;;;;7.95;5.00;;;;;;;12.23;96.92;98808.72;5062423;28;20054;-74
2021/09/20 04:15:42;;;;;;;9.98;5.05;;;;;;;12.14;96.55;98797.28;5055119;28;20016;-75
2021/09/20 04:18:08;;;;;;;9.73;5.32;;;;;;;12.22;96.61;98810.59;5055649;28;20052;-75
2021/09/20 04:20:33;;;;;;;7.25;5.40;;;;;;;12.28;96.57;98808.91;5073435;28;20058;-72
2021/09/20 04:22:59;;;;;;;6.95;5.03;;;;;;;12.28;96.43;98815.16;5073055;28;20478;-73
2021/09/20 04:25:24;;;;;;;7.43;5.20;;;;;;;12.26;95.76;98817.28;5073884;28;20055;-73
2021/09/20 04:27:50;;;;;;;7.53;5.22;;;;;;;12.16;95.40;98807.94;5073487;28;20108;-74
2021/09/20 04:30:15;;;;;;;8.85;5.72;;;;;;;12.25;96.13;98820.19;5073882;28;20028;-74
2021/09/20 04:32:41;;;;;;;7.10;4.95;;;;;;;12.21;95.80;98802.69;5068287;28;20026;-75
2021/09/20 04:35:07;;;;;;;7.78;4.97;;;;;;;12.14;95.48;98791.03;5055166;28;20176;-76
2021/09/20 04:37:32;;;;;;;7.20;4.97;;;;;;;12.27;95.47;98818.13;5071683;28;20031;-73
2021/09/20 04:39:58;;;;;;;7.72;5.70;;;;;;;12.40;94.59;98823.47;5073471;28;20028;-74
2021/09/20 04:42:23;;;;;;;7.72;5.10;;;;;;;12.47;93.35;98827.00;5073222;28;20028;-75
2021/09/20 04:44:48;;;;;;;8.68;4.97;;;;;;;12.48;93.54;98828.66;5078470;28;20015;-73
2021/09/20 04:47:14;;;;;;;10.85;5.70;;;;;;;12.46;93.73;98836.19;5075541;28;20099;-73
2021/09/20 04:49:40;;;;;;;7.45;4.80;;;;;;;12.39;94.10;98832.69;5054273;28;20108;-74
2021/09/20 04:52:05;;;;;;;7.80;5.60;;;;;;;12.45;94.59;98844.56;5070532;28;20027;-75
2021/09/20 04:54:31;;;;;;;8.10;5.10;;;;;;;12.39;95.33;98843.53;5072708;28;20033;-72
2021/09/20 04:56:56;;;;;;;8.38;5.43;;;;;;;12.35;94.80;98847.72;5072062;28;20020;-72
2021/09/20 04:59:21;;;;;;;8.15;5.13;;;;;;;12.30;94.64;98839.38;5055245;28;20543;-78
2021/09/20 05:01:47;;;;;;;8.75;5.50;;;;;;;12.30;94.78;98844.81;5054755;28;20020;-75
2021/09/20 05:04:14;;;;;;;8.63;5.18;;;;;;;12.22;95.20;98840.44;5072417;28;20024;-75
2021/09/20 05:06:39;;;;;;;7.60;5.15;;;;;;;12.30;95.23;98843.97;5072479;28;20453;-77
2021/09/20 05:09:07;;;;;;;9.75;5.28;;;;;;;12.20;95.40;98844.41;5059144;28;20023;-73
2021/09/20 05:11:33;;;;;;;9.40;5.60;;;;;;;12.10;95.98;98827.75;5073383;28;20478;-75
2021/09/20 05:13:58;;;;;;;7.95;5.43;;;;;;;12.29;95.25;98848.56;5088338;28;20091;-73
2021/09/20 05:16:24;;;;;;;8.18;5.63;;;;;;;12.14;95.36;98826.28;5069708;28;20473;-73
2021/09/20 05:18:49;;;;;;;8.63;5.40;;;;;;;12.19;93.58;98819.19;5086979;28;20029;-73
2021/09/20 05:21:14;;;;;;;9.90;5.18;;;;;;;12.15;92.28;98784.56;5071025;28;20008;-71
2021/09/20 05:23:40;;;;;;;9.77;5.53;;;;;;;12.04;92.63;98775.19;5065488;28;20044;-73
2021/09/20 05:26:05;;;;;;;10.32;5.80;;;;;;;12.33;92.96;98828.09;5064628;28;20043;-73
2021/09/20 05:28:31;;;;;;;9.15;5.97;;;;;;;12.40;93.25;98847.91;5067955;28;20488;-71
2021/09/20 05:30:56;;;;;;;8.35;5.78;;;;;;;12.55;93.17;98849.50;5052823;28;20468;-72
2021/09/20 05:33:22;;;;;;;7.95;5.28;;;;;;;12.55;93.80;98865.78;5053053;28;20025;-71
2021/09/20 05:35:47;;;;;;;10.75;5.78;;;;;;;12.45;94.53;98839.13;5071912;28;20115;-71
2021/09/20 05:38:14;;;;;;;8.45;5.72;;;;;;;12.59;94.44;98862.44;5071320;28;20424;-70
2021/09/20 05:40:43;;;;;;;10.05;5.70;;;;;;;12.60;94.47;98865.97;5072128;28;20035;-71
2021/09/20 05:43:08;;;;;;;9.98;5.80;;;;;;;12.63;94.35;98868.28;5072842;28;20037;-71
2021/09/20 05:45:33;;;;;;;13.63;6.05;;;;;;;12.69;94.24;98867.41;5073193;28;20375;-72
2021/09/20 05:48:00;;;;;;;8.43;5.53;;;;;;;12.70;93.87;98874.50;5066743;28;20028;-70
2021/09/20 05:50:26;;;;;;;7.15;5.43;;;;;;;12.66;93.27;98855.09;5065455;28;20021;-73
2021/09/20 05:52:52;;;;;;;7.90;5.30;;;;;;;12.77;93.20;98872.59;5069061;28;20112;-71
2021/09/20 05:55:18;;;;;;;9.68;6.20;;;;;;;12.60;93.42;98846.97;5065183;28;20173;-71
2021/09/20 05:57:43;;;;;;;8.50;5.72;;;;;;;12.74;93.10;98867.59;5049861;28;20028;-70
2021/09/20 06:00:10;;;;;;;7.18;5.50;;;;;;;12.81;93.11;98876.56;5067381;28;20020;-71
2021/09/20 06:02:35;;;;;;;8.63;5.40;;;;;;;12.89;93.07;98878.16;5066974;28;20028;-70
2021/09/20 06:05:01;;;;;;;7.93;5.57;;;;;;;12.84;92.87;98873.41;5065836;28;20395;-71
2021/09/20 06:07:26;;;;;;;8.73;6.00;;;;;;;12.85;92.74;98875.06;5060345;28;20084;-70
2021/09/20 06:09:51;;;;;;;8.13;4.82;;;;;;;12.86;92.48;98860.47;5063875;28;20025;-70
2021/09/20 06:12:19;;;;;;;8.95;5.53;;;;;;;12.76;93.19;98860.09;5068258;28;20086;-72
2021/09/20 06:14:44;;;;;;;9.23;4.53;;;;;;;12.94;93.16;98887.34;5040404;28;20114;-71
2021/09/20 06:17:09;;;;;;;6.82;4.68;;;;;;;13.02;92.89;98888.13;5069486;28;20017;-73
2021/09/20 06:19:35;;;;;;;7.75;4.97;;;;;;;12.94;92.51;98879.22;5052161;28;20048;-75
2021/09/20 06:22:00;;;;;;;6.97;4.50;;;;;;;12.96;91.38;98875.44;5071660;28;20449;-75
2021/09/20 06:24:25;;;;;;;9.35;5.38;;;;;;;12.89;90.45;98878.16;5070039;28;20037;-73
2021/09/20 06:26:51;;;;;;;7.47;5.72;;;;;;;12.79;90.05;98883.25;5054537;28;20406;-74
2021/09/20 06:29:16;;;;;;;9.25;5.80;;;;;;;12.84;89.66;98873.41;5054998;28;20490;-75
2021/09/20 06:31:42;;;;;;;7.60;5.70;;;;;;;13.03;89.68;98897.97;5071852;28;20477;-75
2021/09/20 06:34:07;;;;;;;9.73;5.43;;;;;;;13.12;89.59;98897.47;5073356;28;20498;-71
2021/09/20 06:36:33;;;;;;;8.05;5.32;;;;;;;13.15;88.94;98888.06;5077501;28;20035;-70
2021/09/20 06:38:58;;;;;;;7.35;5.20;;;;;;;13.19;88.67;98896.63;5073572;28;20024;-70
2021/09/20 06:41:24;;;;;;;10.35;5.28;;;;;;;13.27;87.41;98889.06;5075566;28;20039;-69
2021/09/20 06:43:50;;;;;;;9.07;5.22;;;;;;;13.24;87.31;98894.91;5076097;28;20029;-70
2021/09/20 06:46:15;;;;;;;7.03;5.15;;;;;;;13.25;88.13;98891.13;5074043;28;20093;-73
2021/09/20 06:48:42;;;;;;;9.55;5.57;;;;;;;13.31;88.60;98897.63;5059657;28;20024;-74
2021/09/20 06:51:07;;;;;;;8.10;5.53;;;;;;;13.32;89.20;98902.00;5056284;28;20124;-75
2021/09/20 06:53:32;;;;;;;7.50;5.80;;;;;;;13.22;89.17;98883.44;5056309;28;20060;-72
2021/09/20 06:55:58;;;;;;;7.90;5.30;;;;;;;13.33;88.66;98890.06;5075723;28;20099;-76
2021/09/20 06:58:23;;;;;;;10.32;5.30;;;;;;;13.34;88.41;98868.13;5054693;28;20028;-74
2021/09/20 07:00:49;;;;;;;9.38;5.53;;;;;;;13.55;88.28;98896.84;5057479;28;20384;-75
2021/09/20 07:03:14;;;;;;;9.05;5.53;;;;;;;13.62;87.47;98896.75;5071988;28;20028;-74
2021/09/20 07:05:41;;;;;;;9.15;5.72;;;;;;;13.58;87.42;98901.00;5055560;28;20028;-73
2021/09/20 07:08:06;;;;;;;8.90;6.13;;;;;;;13.62;86.81;98882.34;5055271;28;20088;-73
2021/09/20 07:10:32;;;;;;;12.23;6.40;;;;;;;13.52;87.18;98874.72;5075025;28;20484;-73
2021/09/20 07:12:57;;;;;;;9.90;6.00;;;;;;;13.51;87.03;98878.47;5076819;28;20020;-73
2021/09/20 07:15:22;;;;;;;13.57;6.32;;;;;;;13.54;87.50;98878.00;5050710;28;20024;-73
2021/09/20 07:17:48;;;;;;;8.45;6.43;;;;;;;13.66;86.99;98887.13;5068188;28;20024;-74
2021/09/20 07:20:13;;;;;;;11.40;6.97;;;;;;;13.79;86.50;98902.50;5054888;28;20035;-73
2021/09/20 07:22:39;;;;;;;11.48;6.80;;;;;;;13.70;86.47;98882.94;5071297;28;20028;-73
2021/09/20 07:25:05;;;;;;;9.00;6.32;;;;;;;13.89;86.21;98902.00;5049912;28;20024;-73
2021/09/20 07:27:31;;;;;;;10.70;6.18;;;;;;;13.96;85.03;98892.75;5072222;28;20097;-71
2021/09/20 07:29:57;;;;;;;11.85;6.43;;;;;;;14.13;83.84;98901.16;5073658;28;20444;-71
2021/09/20 07:32:22;;;;;;;15.43;7.13;;;;;;;14.12;84.16;98912.25;5073484;28;20032;-71
2021/09/20 07:34:47;;;;;;;13.05;7.00;;;;;;;14.20;83.39;98910.09;5073113;28;20067;-70
2021/09/20 07:37:14;;;;;;;12.00;7.07;;;;;;;14.30;83.84;98919.63;5069157;28;20024;-71
2021/09/20 07:39:40;;;;;;;14.45;7.55;;;;;;;14.30;83.84;98901.38;5055345;28;20024;-70
2021/09/20 07:42:06;;;;;;;9.18;6.65;;;;;;;14.38;83.55;98894.81;5073302;28;20039;-71
2021/09/20 07:44:32;;;;;;;13.60;7.22;;;;;;;14.36;83.74;98907.84;5072972;28;20029;-70
2021/09/20 07:46:57;;;;;;;11.38;6.28;;;;;;;14.48;83.31;98916.91;5054963;28;20402;-71
2021/09/20 07:49:22;;;;;;;12.95;6.50;;;;;;;14.37;83.01;98888.56;5054949;28;20054;-71
2021/09/20 07:51:48;;;;;;;8.07;5.97;;;;;;;14.43;83.35;98911.31;5076643;28;20071;-71
2021/09/20 07:54:13;;;;;;;8.55;6.18;;;;;;;14.63;83.41;98924.75;5075043;28;20025;-71
2021/09/20 07:56:38;;;;;;;10.25;6.75;;;;;;;14.61;82.79;98910.53;5056615;28;20028;-71
2021/09/20 07:59:04;;;;;;;10.50;5.97;;;;;;;14.78;82.24;98900.69;5073275;28;20107;-71
2021/09/20 08:01:30;;;;;;;9.45;5.43;;;;;;;14.89;81.08;98912.72;5055583;28;20021;-71
2021/09/20 08:03:55;;;;;;;11.32;6.28;;;;;;;14.90;81.72;98925.25;5072562;28;20039;-71
2021/09/20 08:06:22;;;;;;;8.13;5.78;;;;;;;15.06;80.29;98930.09;5073534;28;20425;-71
2021/09/20 08:08:47;;;;;;;9.43;5.72;;;;;;;15.24;80.52;98931.13;5072671;28;20107;-72
2021/09/20 08:11:13;;;;;;;8.32;5.68;;;;;;;15.12;79.58;98914.72;5071589;28;20052;-72
2021/09/20 08:13:39;;;;;;;7.43;5.43;;;;;;;14.93;80.87;98926.69;5055207;28;20390;-71
2021/09/20 08:16:04;;;;;;;8.10;5.15;;;;;;;14.81;80.38;98916.56;5071673;28;20028;-71
2021/09/20 08:18:31;;;;;;;6.95;4.97;;;;;;;14.79;79.46;98901.53;5052795;28;20028;-71
2021/09/20 08:20:56;;;;;;;7.35;4.88;;;;;;;15.01;79.82;98940.00;5071877;28;20539;-71
2021/09/20 08:23:22;;;;;;;6.35;4.40;;;;;;;15.04;79.96;98934.94;5073644;28;20040;-72
2021/09/20 08:25:47;;;;;;;7.03;4.80;;;;;;;15.27;79.63;98939.69;5073633;28;20099;-71
2021/09/20 08:28:13;;;;;;;9.23;4.50;;;;;;;15.18;79.06;98929.31;5071269;28;20033;-73
2021/09/20 08:30:39;;;;;;;6.78;4.85;;;;;;;15.39;79.32;98928.00;5047040;28;20074;-73
2021/09/20 08:33:05;;;;;;;7.78;5.68;;;;;;;15.29;78.04;98917.63;5073861;28;20425;-71
2021/09/20 08:35:31;;;;;;;7.32;4.80;;;;;;;15.64;77.49;98941.44;5070297;28;20024;-71
2021/09/20 08:37:57;;;;;;;7.18;5.35;;;;;;;15.78;76.18;98918.41;5071956;28;20081;-71
2021/09/20 08:40:22;;;;;;;8.95;5.40;;;;;;;15.77;75.71;98909.41;5054190;28;20024;-71
2021/09/20 08:42:48;;;;;;;10.27;5.20;;;;;;;15.96;75.75;98934.69;5054818;28;20385;-72
2021/09/20 08:45:16;;;;;;;7.47;5.13;;;;;;;16.27;74.72;98948.22;5070708;28;20050;-71
2021/09/20 08:47:45;;;;;;;7.30;4.97;;;;;;;16.58;72.49;98944.31;5071818;28;20025;-71
2021/09/20 08:50:12;;;;;;;8.68;5.55;;;;;;;16.74;71.98;98954.53;5071815;28;20565;-71
2021/09/20 08:52:38;;;;;;;10.50;5.30;;;;;;;16.73;71.88;98936.44;5050702;28;20028;-71
2021/09/20 08:55:04;;;;;;;8.55;5.93;;;;;;;16.97;71.40;98950.09;5052576;28;20474;-72
2021/09/20 08:57:30;;;;;;;8.98;5.50;;;;;;;17.08;71.31;98946.50;5071535;28;20096;-76
2021/09/20 08:59:55;;;;;;;12.65;5.93;;;;;;;17.35;69.83;98943.22;5074764;28;20094;-75
2021/09/20 09:02:21;;;;;;;9.13;5.93;;;;;;;17.38;69.71;98948.19;5049505;28;20467;-76
2021/09/20 09:04:46;;;;;;;10.85;6.13;;;;;;;17.11;68.67;98943.31;5053910;28;20020;-77
2021/09/20 09:07:14;;;;;;;8.70;5.35;;;;;;;16.96;70.23;98945.72;5049733;28;20028;-77
2021/09/20 09:09:43;;;;;;;7.55;5.85;;;;;;;17.18;69.81;98954.91;5063721;28;20111;-77
2021/09/20 09:12:26;;;;;;;10.23;5.53;;;;;;;17.37;68.94;98962.94;5067323;28;20029;-77
2021/09/20 09:14:52;;;;;;;7.57;5.53;;;;;;;17.20;69.85;98966.44;5052233;28;20394;-77
2021/09/20 09:17:25;;;;;;;8.25;5.82;;;;;;;17.38;69.19;98959.13;5071780;28;20069;-76
2021/09/20 09:19:57;;;;;;;8.80;5.45;;;;;;;17.66;68.20;98972.81;5042060;28;20013;-77
2021/09/20 09:22:24;;;;;;;8.68;5.55;;;;;;;17.64;68.05;98976.88;5072056;28;20154;-77
2021/09/20 09:25:00;;;;;;;7.88;5.63;;;;;;;17.61;67.96;98964.50;5071674;28;20026;-78
2021/09/20 09:27:26;;;;;;;7.65;5.55;;;;;;;17.83;66.88;98958.34;5071387;28;20486;-78
2021/09/20 09:30:05;;;;;;;8.23;5.70;;;;;;;18.06;65.39;98952.72;5071044;28;20059;-76
2021/09/20 09:32:31;;;;;;;9.15;5.05;;;;;;;18.64;64.66;98980.75;5070660;28;20024;-71
2021/09/20 09:34:59;;;;;;;6.70;5.03;;;;;;;18.49;64.52;98962.16;5071677;28;20028;-76
2021/09/20 09:37:25;;;;;;;9.18;5.22;;;;;;;18.58;64.32;98971.63;5065624;28;20021;-77
2021/09/20 09:40:05;;;;;;;7.65;5.25;;;;;;;18.22;65.34;98959.28;5052220;28;20413;-78
2021/09/20 09:42:31;;;;;;;6.68;5.07;;;;;;;18.45;65.10;98974.72;5072195;28;20024;-77
2021/09/20 09:45:11;;;;;;;6.80;5.40;;;;;;;18.37;64.55;98945.00;5071865;28;20491;-76
2021/09/20 09:47:37;;;;;;;13.05;5.82;;;;;;;18.74;63.42;98966.38;5053918;28;20028;-77
2021/09/20 09:50:17;;;;;;;7.53;5.70;;;;;;;19.18;62.25;98971.91;5054452;28;20391;-78
2021/09/20 09:52:44;;;;;;;10.82;6.82;;;;;;;19.20;61.73;98976.06;5061905;28;20017;-70
2021/09/20 09:55:11;;;;;;;7.53;5.97;;;;;;;19.53;61.59;98976.16;5068978;28;20029;-71
2021/09/20 09:57:37;;;;;;;11.65;6.15;;;;;;;19.72;61.10;98982.16;5070002;28;20024;-71
2021/09/20 10:00:13;;;;;;;9.55;6.40;;;;;;;19.63;60.74;98970.78;5066397;28;20025;-70
2021/09/20 10:02:42;;;;;;;8.93;5.93;;;;;;;19.65;60.66;98966.69;5071359;28;20025;-71
2021/09/20 10:05:10;;;;;;;7.78;6.05;;;;;;;19.66;59.64;98962.88;5070206;28;20039;-70
2021/09/20 10:07:38;;;;;;;8.70;6.30;;;;;;;19.71;60.17;98973.09;5070933;28;20402;-71
2021/09/20 10:10:07;;;;;;;12.02;6.90;;;;;;;19.45;60.68;98971.97;5071444;28;20039;-70
2021/09/20 10:12:33;;;;;;;;;;;;;;;19.25;61.06;98970.63;5075075;28;20486;-70
2021/09/20 10:15:00;;;;;;;10.32;6.80;;;;;;;19.15;62.19;98970.53;5074045;28;19934;-70
2021/09/20 10:17:29;;;;;;;11.25;7.45;;;;;;;19.25;61.93;98978.84;5072036;28;20025;-70
2021/09/20 10:19:56;;;;;;;10.38;6.88;;;;;;;19.14;61.26;98979.00;5071787;28;20539;-70
2021/09/20 10:22:23;;;;;;;12.60;7.68;;;;;;;19.39;61.29;98976.56;5071945;28;20034;-72
2021/09/20 10:24:52;;;;;;;11.15;7.68;;;;;;;19.28;61.57;98980.25;5070437;28;20136;-71
2021/09/20 10:27:20;;;;;;;12.18;8.80;;;;;;;19.39;60.90;98970.25;5070354;28;20017;-68
2021/09/20 10:30:03;;;;;;;10.93;7.68;;;;;;;19.49;61.01;98975.81;5067916;28;20036;-67
2021/09/20 10:32:30;;;;;;;13.70;7.50;;;;;;;19.65;60.53;98974.09;5053783;28;20024;-68
2021/09/20 10:35:26;;;;;;;11.52;7.43;;;;;;;19.63;60.56;98968.03;5070880;28;20033;-70
2021/09/20 10:37:52;;;;;;;11.43;7.38;;;;;;;18.94;62.44;98963.09;5071657;28;20043;-70
2021/09/20 10:40:18;;;;;;;7.75;5.97;;;;;;;19.38;62.43;98969.41;5070155;28;20032;-70
2021/09/20 10:42:53;;;;;;;9.23;7.05;;;;;;;19.69;61.75;98973.34;5071587;28;20020;-70
2021/09/20 10:45:37;;;;;;;11.10;6.57;;;;;;;19.27;61.34;98973.13;5069095;28;20393;-70
2021/09/20 10:48:24;;;;;;;11.48;6.53;;;;;;;19.13;60.50;98974.59;5067646;28;20036;-68
2021/09/20 10:50:49;;;;;;;11.77;7.30;;;;;;;19.53;61.52;98978.91;5048431;28;20043;-68
2021/09/20 10:53:14;;;;;;;10.90;7.15;;;;;;;19.77;59.28;98969.31;5061873;28;20024;-69
2021/09/20 10:56:02;;;;;;;11.77;7.50;;;;;;;19.87;59.23;98982.31;5069492;28;20055;-69
2021/09/20 10:58:36;;;;;;;11.30;7.82;;;;;;;19.67;59.37;98971.94;5068099;28;20312;-69
2021/09/20 11:01:11;;;;;;;10.43;7.43;;;;;;;19.73;60.35;98972.81;5041673;28;20510;-68
2021/09/20 11:03:43;;;;;;;10.48;7.15;;;;;;;19.51;60.56;98972.84;5070250;28;20039;-68
2021/09/20 11:06:25;;;;;;;11.82;7.80;;;;;;;19.26;60.65;98974.22;5070400;28;20556;-67
2021/09/20 11:09:01;;;;;;;10.32;7.28;;;;;;;19.25;60.57;98978.84;5064541;28;20028;-70
2021/09/20 11:14:15;;;;;;;9.52;6.78;;;;;;;19.17;62.39;98972.97;5068807;28;20036;-70
2021/09/20 11:16:53;;;;;;;10.30;7.05;;;;;;;19.32;62.46;98981.41;5070682;28;20438;-69
2021/09/20 11:19:24;;;;;;;9.00;6.35;;;;;;;19.56;61.85;98975.63;5068872;28;20032;-70
2021/09/20 11:22:05;;;;;;;7.80;5.55;;;;;;;19.53;60.84;98982.47;5049450;28;20039;-70
2021/09/20 11:24:34;;;;;;;7.72;6.10;;;;;;;19.23;60.76;98977.44;5056937;28;20024;-70
2021/09/20 11:27:01;;;;;;;7.72;5.97;;;;;;;19.23;62.68;98982.94;5069403;28;20085;-70
2021/09/20 11:29:28;;;;;;;8.27;6.38;;;;;;;19.40;62.33;98980.13;5068321;28;20028;-69
2021/09/20 11:31:54;;;;;;;9.07;5.85;;;;;;;19.13;63.56;98972.69;5055148;28;20420;-70